sensor_id;sensor_type;location;lat;lon;timestamp;P1;durP1;ratioP1;P2;durP2;ratioP2
6223;SDS011;3145;42.726;23.342;2024-03-02T00:01:29;51.87;;;27.77;;
6223;SDS011;3145;42.726;23.342;2024-03-02T00:03:55;52.23;;;28.30;;
6223;SDS011;3145;42.726;23.342;2024-03-02T00:06:22;57.43;;;31.53;;
6223;SDS011;3145;42.726;23.342;2024-03-02T00:08:49;54.47;;;29.97;;
6223;SDS011;3145;42.726;23.342;2024-03-02T00:11:16;54.57;;;29.63;;
6223;SDS011;3145;42.726;23.342;2024-03-02T00:13:44;54.03;;;29.23;;
6223;SDS011;3145;42.726;23.342;2024-03-02T00:16:11;56.33;;;32.07;;
6223;SDS011;3145;42.726;23.342;2024-03-02T00:18:39;54.47;;;30.77;;
6223;SDS011;3145;42.726;23.342;2024-03-02T00:21:07;51.00;;;30.20;;
6223;SDS011;3145;42.726;23.342;2024-03-02T00:23:36;55.87;;;30.50;;
6223;SDS011;3145;42.726;23.342;2024-03-02T00:26:03;49.77;;;27.80;;
6223;SDS011;3145;42.726;23.342;2024-03-02T00:28:32;57.10;;;30.10;;
6223;SDS011;3145;42.726;23.342;2024-03-02T00:31:01;51.83;;;30.27;;
6223;SDS011;3145;42.726;23.342;2024-03-02T00:33:30;51.43;;;29.47;;
6223;SDS011;3145;42.726;23.342;2024-03-02T00:36:00;53.93;;;31.93;;
6223;SDS011;3145;42.726;23.342;2024-03-02T00:38:28;56.70;;;30.53;;
6223;SDS011;3145;42.726;23.342;2024-03-02T00:40:55;65.77;;;38.10;;
6223;SDS011;3145;42.726;23.342;2024-03-02T00:46:10;55.03;;;29.00;;
6223;SDS011;3145;42.726;23.342;2024-03-02T00:48:39;52.97;;;28.33;;
6223;SDS011;3145;42.726;23.342;2024-03-02T00:51:14;54.33;;;30.10;;
6223;SDS011;3145;42.726;23.342;2024-03-02T00:53:41;54.87;;;29.63;;
6223;SDS011;3145;42.726;23.342;2024-03-02T00:56:09;50.07;;;29.67;;
6223;SDS011;3145;42.726;23.342;2024-03-02T00:58:37;50.10;;;28.87;;
6223;SDS011;3145;42.726;23.342;2024-03-02T01:01:04;48.23;;;28.07;;
6223;SDS011;3145;42.726;23.342;2024-03-02T01:03:31;42.87;;;27.33;;
6223;SDS011;3145;42.726;23.342;2024-03-02T01:05:58;46.97;;;27.03;;
6223;SDS011;3145;42.726;23.342;2024-03-02T01:08:26;44.53;;;26.03;;
6223;SDS011;3145;42.726;23.342;2024-03-02T01:10:53;48.93;;;27.97;;
6223;SDS011;3145;42.726;23.342;2024-03-02T01:13:20;47.73;;;27.20;;
6223;SDS011;3145;42.726;23.342;2024-03-02T01:15:47;46.20;;;28.00;;
6223;SDS011;3145;42.726;23.342;2024-03-02T01:18:14;50.20;;;29.67;;
6223;SDS011;3145;42.726;23.342;2024-03-02T01:20:41;47.23;;;28.63;;
6223;SDS011;3145;42.726;23.342;2024-03-02T01:23:07;46.93;;;27.30;;
6223;SDS011;3145;42.726;23.342;2024-03-02T01:25:36;45.90;;;27.83;;
6223;SDS011;3145;42.726;23.342;2024-03-02T01:28:03;52.80;;;30.57;;
6223;SDS011;3145;42.726;23.342;2024-03-02T01:30:30;55.87;;;30.77;;
6223;SDS011;3145;42.726;23.342;2024-03-02T01:32:57;46.37;;;25.50;;
6223;SDS011;3145;42.726;23.342;2024-03-02T01:35:25;47.07;;;27.77;;
6223;SDS011;3145;42.726;23.342;2024-03-02T01:37:52;45.90;;;26.67;;
6223;SDS011;3145;42.726;23.342;2024-03-02T01:40:19;51.13;;;28.23;;
6223;SDS011;3145;42.726;23.342;2024-03-02T01:42:47;51.00;;;27.63;;
6223;SDS011;3145;42.726;23.342;2024-03-02T01:45:14;48.47;;;27.70;;
6223;SDS011;3145;42.726;23.342;2024-03-02T01:47:41;46.27;;;28.20;;
6223;SDS011;3145;42.726;23.342;2024-03-02T01:50:08;47.47;;;26.93;;
6223;SDS011;3145;42.726;23.342;2024-03-02T01:52:37;47.83;;;27.27;;
6223;SDS011;3145;42.726;23.342;2024-03-02T01:55:04;45.30;;;26.40;;
6223;SDS011;3145;42.726;23.342;2024-03-02T01:57:32;51.57;;;30.23;;
6223;SDS011;3145;42.726;23.342;2024-03-02T02:00:00;46.93;;;29.83;;
6223;SDS011;3145;42.726;23.342;2024-03-02T02:02:28;50.87;;;28.37;;
6223;SDS011;3145;42.726;23.342;2024-03-02T02:04:55;54.00;;;29.17;;
6223;SDS011;3145;42.726;23.342;2024-03-02T02:07:21;51.60;;;29.37;;
6223;SDS011;3145;42.726;23.342;2024-03-02T02:09:48;57.93;;;29.50;;
6223;SDS011;3145;42.726;23.342;2024-03-02T02:12:15;53.30;;;28.83;;
6223;SDS011;3145;42.726;23.342;2024-03-02T02:14:46;54.50;;;30.03;;
6223;SDS011;3145;42.726;23.342;2024-03-02T02:17:15;49.17;;;30.23;;
6223;SDS011;3145;42.726;23.342;2024-03-02T02:19:41;49.40;;;29.07;;
6223;SDS011;3145;42.726;23.342;2024-03-02T02:22:10;53.50;;;31.13;;
6223;SDS011;3145;42.726;23.342;2024-03-02T02:24:39;55.67;;;30.27;;
6223;SDS011;3145;42.726;23.342;2024-03-02T02:27:06;56.83;;;31.23;;
6223;SDS011;3145;42.726;23.342;2024-03-02T02:29:33;59.97;;;31.80;;
6223;SDS011;3145;42.726;23.342;2024-03-02T02:31:59;58.07;;;30.13;;
6223;SDS011;3145;42.726;23.342;2024-03-02T02:34:26;54.57;;;30.80;;
6223;SDS011;3145;42.726;23.342;2024-03-02T02:36:53;54.70;;;31.23;;
6223;SDS011;3145;42.726;23.342;2024-03-02T02:39:21;52.73;;;29.47;;
6223;SDS011;3145;42.726;23.342;2024-03-02T02:41:48;56.77;;;31.23;;
6223;SDS011;3145;42.726;23.342;2024-03-02T02:44:15;60.07;;;33.17;;
6223;SDS011;3145;42.726;23.342;2024-03-02T02:46:42;53.53;;;29.67;;
6223;SDS011;3145;42.726;23.342;2024-03-02T02:49:08;60.77;;;34.13;;
6223;SDS011;3145;42.726;23.342;2024-03-02T02:51:35;53.00;;;28.70;;
6223;SDS011;3145;42.726;23.342;2024-03-02T02:54:02;51.30;;;29.97;;
6223;SDS011;3145;42.726;23.342;2024-03-02T02:56:30;54.57;;;29.00;;
6223;SDS011;3145;42.726;23.342;2024-03-02T02:58:57;57.87;;;28.20;;
6223;SDS011;3145;42.726;23.342;2024-03-02T03:01:23;51.50;;;26.73;;
6223;SDS011;3145;42.726;23.342;2024-03-02T03:03:50;59.43;;;28.97;;
6223;SDS011;3145;42.726;23.342;2024-03-02T03:06:17;64.73;;;35.00;;
6223;SDS011;3145;42.726;23.342;2024-03-02T03:08:44;54.47;;;28.43;;
6223;SDS011;3145;42.726;23.342;2024-03-02T03:11:11;49.87;;;29.53;;
6223;SDS011;3145;42.726;23.342;2024-03-02T03:13:39;59.20;;;32.77;;
6223;SDS011;3145;42.726;23.342;2024-03-02T03:16:05;55.60;;;30.97;;
6223;SDS011;3145;42.726;23.342;2024-03-02T03:18:32;54.67;;;29.80;;
6223;SDS011;3145;42.726;23.342;2024-03-02T03:20:59;52.40;;;29.10;;
6223;SDS011;3145;42.726;23.342;2024-03-02T03:23:26;45.20;;;27.50;;
6223;SDS011;3145;42.726;23.342;2024-03-02T03:25:52;58.50;;;29.77;;
6223;SDS011;3145;42.726;23.342;2024-03-02T03:28:19;53.50;;;29.97;;
6223;SDS011;3145;42.726;23.342;2024-03-02T03:30:47;50.87;;;30.10;;
6223;SDS011;3145;42.726;23.342;2024-03-02T03:33:14;55.03;;;29.90;;
6223;SDS011;3145;42.726;23.342;2024-03-02T03:35:40;48.87;;;29.67;;
6223;SDS011;3145;42.726;23.342;2024-03-02T03:38:07;55.67;;;31.60;;
6223;SDS011;3145;42.726;23.342;2024-03-02T03:40:34;56.60;;;31.30;;
6223;SDS011;3145;42.726;23.342;2024-03-02T03:43:00;59.57;;;32.70;;
6223;SDS011;3145;42.726;23.342;2024-03-02T03:45:27;55.17;;;30.67;;
6223;SDS011;3145;42.726;23.342;2024-03-02T03:47:56;52.17;;;29.87;;
6223;SDS011;3145;42.726;23.342;2024-03-02T03:50:23;58.27;;;31.33;;
6223;SDS011;3145;42.726;23.342;2024-03-02T03:52:50;60.40;;;32.57;;
6223;SDS011;3145;42.726;23.342;2024-03-02T03:55:17;57.47;;;31.17;;
6223;SDS011;3145;42.726;23.342;2024-03-02T03:57:43;55.47;;;29.80;;
6223;SDS011;3145;42.726;23.342;2024-03-02T04:00:10;51.77;;;28.87;;
6223;SDS011;3145;42.726;23.342;2024-03-02T04:02:38;54.03;;;29.50;;
6223;SDS011;3145;42.726;23.342;2024-03-02T04:05:06;54.40;;;28.90;;
6223;SDS011;3145;42.726;23.342;2024-03-02T04:07:35;53.87;;;29.60;;
6223;SDS011;3145;42.726;23.342;2024-03-02T04:10:08;59.73;;;31.10;;
6223;SDS011;3145;42.726;23.342;2024-03-02T04:12:37;52.57;;;29.20;;
6223;SDS011;3145;42.726;23.342;2024-03-02T04:15:04;56.63;;;31.67;;
6223;SDS011;3145;42.726;23.342;2024-03-02T04:17:32;59.37;;;36.37;;
6223;SDS011;3145;42.726;23.342;2024-03-02T04:20:00;73.67;;;43.20;;
6223;SDS011;3145;42.726;23.342;2024-03-02T04:22:32;67.93;;;42.93;;
6223;SDS011;3145;42.726;23.342;2024-03-02T04:24:59;64.77;;;36.23;;
6223;SDS011;3145;42.726;23.342;2024-03-02T04:27:26;59.83;;;32.30;;
6223;SDS011;3145;42.726;23.342;2024-03-02T04:29:52;53.03;;;29.97;;
6223;SDS011;3145;42.726;23.342;2024-03-02T04:32:19;53.23;;;28.47;;
6223;SDS011;3145;42.726;23.342;2024-03-02T04:34:46;61.67;;;30.97;;
6223;SDS011;3145;42.726;23.342;2024-03-02T04:37:12;63.23;;;29.37;;
6223;SDS011;3145;42.726;23.342;2024-03-02T04:39:41;60.60;;;32.00;;
6223;SDS011;3145;42.726;23.342;2024-03-02T04:42:07;56.73;;;30.70;;
6223;SDS011;3145;42.726;23.342;2024-03-02T04:44:34;55.40;;;31.17;;
6223;SDS011;3145;42.726;23.342;2024-03-02T04:47:02;57.57;;;29.90;;
6223;SDS011;3145;42.726;23.342;2024-03-02T04:49:29;62.37;;;31.70;;
6223;SDS011;3145;42.726;23.342;2024-03-02T04:51:56;61.77;;;32.30;;
6223;SDS011;3145;42.726;23.342;2024-03-02T04:54:23;67.00;;;33.30;;
6223;SDS011;3145;42.726;23.342;2024-03-02T04:56:51;65.57;;;35.13;;
6223;SDS011;3145;42.726;23.342;2024-03-02T04:59:17;61.47;;;34.47;;
6223;SDS011;3145;42.726;23.342;2024-03-02T05:01:45;64.57;;;34.23;;
6223;SDS011;3145;42.726;23.342;2024-03-02T05:04:12;56.33;;;31.13;;
6223;SDS011;3145;42.726;23.342;2024-03-02T05:06:39;56.63;;;30.33;;
6223;SDS011;3145;42.726;23.342;2024-03-02T05:09:06;57.87;;;30.00;;
6223;SDS011;3145;42.726;23.342;2024-03-02T05:11:32;53.17;;;31.53;;
6223;SDS011;3145;42.726;23.342;2024-03-02T05:14:25;61.33;;;32.03;;
6223;SDS011;3145;42.726;23.342;2024-03-02T05:16:52;64.27;;;32.43;;
6223;SDS011;3145;42.726;23.342;2024-03-02T05:19:19;63.67;;;34.77;;
6223;SDS011;3145;42.726;23.342;2024-03-02T05:21:45;58.70;;;34.33;;
6223;SDS011;3145;42.726;23.342;2024-03-02T05:24:12;56.70;;;31.83;;
6223;SDS011;3145;42.726;23.342;2024-03-02T05:26:39;61.50;;;32.70;;
6223;SDS011;3145;42.726;23.342;2024-03-02T05:29:05;64.40;;;33.30;;
6223;SDS011;3145;42.726;23.342;2024-03-02T05:31:33;61.33;;;33.53;;
6223;SDS011;3145;42.726;23.342;2024-03-02T05:34:00;67.73;;;34.67;;
6223;SDS011;3145;42.726;23.342;2024-03-02T05:36:27;66.53;;;36.00;;
6223;SDS011;3145;42.726;23.342;2024-03-02T05:38:54;65.20;;;34.27;;
6223;SDS011;3145;42.726;23.342;2024-03-02T05:41:21;69.27;;;35.27;;
6223;SDS011;3145;42.726;23.342;2024-03-02T05:43:47;62.93;;;35.57;;
6223;SDS011;3145;42.726;23.342;2024-03-02T05:46:14;67.83;;;36.30;;
6223;SDS011;3145;42.726;23.342;2024-03-02T05:48:42;68.33;;;35.43;;
6223;SDS011;3145;42.726;23.342;2024-03-02T05:51:09;62.97;;;33.30;;
6223;SDS011;3145;42.726;23.342;2024-03-02T05:53:36;66.37;;;34.20;;
6223;SDS011;3145;42.726;23.342;2024-03-02T05:56:03;67.37;;;34.33;;
6223;SDS011;3145;42.726;23.342;2024-03-02T05:58:30;65.93;;;35.93;;
6223;SDS011;3145;42.726;23.342;2024-03-02T06:01:14;69.37;;;36.07;;
6223;SDS011;3145;42.726;23.342;2024-03-02T06:03:43;68.03;;;36.50;;
6223;SDS011;3145;42.726;23.342;2024-03-02T06:06:10;75.63;;;36.33;;
6223;SDS011;3145;42.726;23.342;2024-03-02T06:08:37;76.40;;;38.07;;
6223;SDS011;3145;42.726;23.342;2024-03-02T06:11:04;75.80;;;42.30;;
6223;SDS011;3145;42.726;23.342;2024-03-02T06:13:31;80.63;;;41.60;;
6223;SDS011;3145;42.726;23.342;2024-03-02T06:15:57;91.33;;;41.90;;
6223;SDS011;3145;42.726;23.342;2024-03-02T06:18:24;85.30;;;40.53;;
6223;SDS011;3145;42.726;23.342;2024-03-02T06:20:52;75.40;;;40.40;;
6223;SDS011;3145;42.726;23.342;2024-03-02T06:23:19;92.80;;;45.27;;
6223;SDS011;3145;42.726;23.342;2024-03-02T06:25:45;80.13;;;41.43;;
6223;SDS011;3145;42.726;23.342;2024-03-02T06:28:12;71.23;;;35.57;;
6223;SDS011;3145;42.726;23.342;2024-03-02T06:30:40;72.20;;;33.80;;
6223;SDS011;3145;42.726;23.342;2024-03-02T06:33:07;79.90;;;35.07;;
6223;SDS011;3145;42.726;23.342;2024-03-02T06:35:33;76.10;;;34.00;;
6223;SDS011;3145;42.726;23.342;2024-03-02T06:38:02;97.23;;;45.80;;
6223;SDS011;3145;42.726;23.342;2024-03-02T06:40:29;163.07;;;84.27;;
6223;SDS011;3145;42.726;23.342;2024-03-02T06:42:55;100.20;;;51.57;;
6223;SDS011;3145;42.726;23.342;2024-03-02T06:45:22;87.03;;;43.27;;
6223;SDS011;3145;42.726;23.342;2024-03-02T06:47:49;74.80;;;37.03;;
6223;SDS011;3145;42.726;23.342;2024-03-02T06:50:15;76.93;;;37.27;;
6223;SDS011;3145;42.726;23.342;2024-03-02T06:52:42;63.57;;;33.50;;
6223;SDS011;3145;42.726;23.342;2024-03-02T06:55:10;63.87;;;34.17;;
6223;SDS011;3145;42.726;23.342;2024-03-02T06:57:37;65.33;;;34.97;;
6223;SDS011;3145;42.726;23.342;2024-03-02T07:00:04;73.77;;;34.53;;
6223;SDS011;3145;42.726;23.342;2024-03-02T07:02:33;70.30;;;34.30;;
6223;SDS011;3145;42.726;23.342;2024-03-02T07:05:01;81.30;;;33.97;;
6223;SDS011;3145;42.726;23.342;2024-03-02T07:07:27;71.80;;;32.70;;
6223;SDS011;3145;42.726;23.342;2024-03-02T07:09:54;65.67;;;32.97;;
6223;SDS011;3145;42.726;23.342;2024-03-02T07:12:22;70.50;;;33.40;;
6223;SDS011;3145;42.726;23.342;2024-03-02T07:14:49;65.97;;;32.83;;
6223;SDS011;3145;42.726;23.342;2024-03-02T07:17:36;69.20;;;31.97;;
6223;SDS011;3145;42.726;23.342;2024-03-02T07:20:03;63.57;;;31.67;;
6223;SDS011;3145;42.726;23.342;2024-03-02T07:22:31;64.37;;;31.33;;
6223;SDS011;3145;42.726;23.342;2024-03-02T07:24:58;67.07;;;34.33;;
6223;SDS011;3145;42.726;23.342;2024-03-02T07:27:26;64.23;;;32.17;;
6223;SDS011;3145;42.726;23.342;2024-03-02T07:29:53;58.00;;;30.43;;
6223;SDS011;3145;42.726;23.342;2024-03-02T07:32:19;66.20;;;32.43;;
6223;SDS011;3145;42.726;23.342;2024-03-02T07:34:46;72.53;;;33.63;;
6223;SDS011;3145;42.726;23.342;2024-03-02T07:37:13;61.20;;;30.37;;
6223;SDS011;3145;42.726;23.342;2024-03-02T07:39:40;67.00;;;31.33;;
6223;SDS011;3145;42.726;23.342;2024-03-02T07:42:06;65.60;;;34.73;;
6223;SDS011;3145;42.726;23.342;2024-03-02T07:44:34;61.73;;;32.00;;
6223;SDS011;3145;42.726;23.342;2024-03-02T07:47:01;61.50;;;32.97;;
6223;SDS011;3145;42.726;23.342;2024-03-02T07:49:28;70.93;;;32.60;;
6223;SDS011;3145;42.726;23.342;2024-03-02T07:51:55;64.87;;;32.30;;
6223;SDS011;3145;42.726;23.342;2024-03-02T07:54:21;53.17;;;28.37;;
6223;SDS011;3145;42.726;23.342;2024-03-02T07:56:48;65.43;;;32.77;;
6223;SDS011;3145;42.726;23.342;2024-03-02T07:59:15;62.67;;;32.43;;
6223;SDS011;3145;42.726;23.342;2024-03-02T08:01:43;64.17;;;31.17;;
6223;SDS011;3145;42.726;23.342;2024-03-02T08:04:10;136.90;;;73.70;;
6223;SDS011;3145;42.726;23.342;2024-03-02T08:06:36;73.67;;;42.00;;
6223;SDS011;3145;42.726;23.342;2024-03-02T08:09:03;76.10;;;40.87;;
6223;SDS011;3145;42.726;23.342;2024-03-02T08:11:34;76.80;;;39.43;;
6223;SDS011;3145;42.726;23.342;2024-03-02T08:14:02;70.50;;;36.17;;
6223;SDS011;3145;42.726;23.342;2024-03-02T08:16:29;65.57;;;35.03;;
6223;SDS011;3145;42.726;23.342;2024-03-02T08:18:57;75.57;;;38.07;;
6223;SDS011;3145;42.726;23.342;2024-03-02T08:21:24;61.27;;;30.70;;
6223;SDS011;3145;42.726;23.342;2024-03-02T08:23:51;75.97;;;37.80;;
6223;SDS011;3145;42.726;23.342;2024-03-02T08:26:20;67.30;;;33.03;;
6223;SDS011;3145;42.726;23.342;2024-03-02T08:28:47;65.47;;;33.27;;
6223;SDS011;3145;42.726;23.342;2024-03-02T08:31:14;72.33;;;39.07;;
6223;SDS011;3145;42.726;23.342;2024-03-02T08:33:40;66.73;;;35.40;;
6223;SDS011;3145;42.726;23.342;2024-03-02T08:36:09;69.63;;;38.37;;
6223;SDS011;3145;42.726;23.342;2024-03-02T08:38:36;65.67;;;35.13;;
6223;SDS011;3145;42.726;23.342;2024-03-02T08:41:02;71.33;;;37.97;;
6223;SDS011;3145;42.726;23.342;2024-03-02T08:43:30;69.53;;;37.53;;
6223;SDS011;3145;42.726;23.342;2024-03-02T08:45:57;76.80;;;40.20;;
6223;SDS011;3145;42.726;23.342;2024-03-02T08:48:23;60.33;;;32.27;;
6223;SDS011;3145;42.726;23.342;2024-03-02T08:50:50;64.50;;;35.90;;
6223;SDS011;3145;42.726;23.342;2024-03-02T08:53:18;68.87;;;38.20;;
6223;SDS011;3145;42.726;23.342;2024-03-02T08:55:45;78.87;;;40.00;;
6223;SDS011;3145;42.726;23.342;2024-03-02T08:58:12;90.03;;;46.77;;
6223;SDS011;3145;42.726;23.342;2024-03-02T09:00:39;79.20;;;41.97;;
6223;SDS011;3145;42.726;23.342;2024-03-02T09:03:06;62.43;;;30.67;;
6223;SDS011;3145;42.726;23.342;2024-03-02T09:05:32;71.67;;;38.03;;
6223;SDS011;3145;42.726;23.342;2024-03-02T09:07:59;64.73;;;35.47;;
6223;SDS011;3145;42.726;23.342;2024-03-02T09:10:27;72.00;;;35.60;;
6223;SDS011;3145;42.726;23.342;2024-03-02T09:12:54;67.93;;;37.00;;
6223;SDS011;3145;42.726;23.342;2024-03-02T09:15:21;63.40;;;33.53;;
6223;SDS011;3145;42.726;23.342;2024-03-02T09:17:47;61.07;;;31.07;;
6223;SDS011;3145;42.726;23.342;2024-03-02T09:20:14;66.47;;;34.50;;
6223;SDS011;3145;42.726;23.342;2024-03-02T09:22:41;48.20;;;23.77;;
6223;SDS011;3145;42.726;23.342;2024-03-02T09:25:08;67.77;;;34.73;;
6223;SDS011;3145;42.726;23.342;2024-03-02T09:27:37;62.33;;;33.97;;
6223;SDS011;3145;42.726;23.342;2024-03-02T09:30:06;56.03;;;28.77;;
6223;SDS011;3145;42.726;23.342;2024-03-02T09:32:36;60.43;;;35.13;;
6223;SDS011;3145;42.726;23.342;2024-03-02T09:35:04;60.07;;;33.93;;
6223;SDS011;3145;42.726;23.342;2024-03-02T09:37:31;65.67;;;36.67;;
6223;SDS011;3145;42.726;23.342;2024-03-02T09:39:57;59.17;;;33.23;;
6223;SDS011;3145;42.726;23.342;2024-03-02T09:42:24;60.90;;;34.20;;
6223;SDS011;3145;42.726;23.342;2024-03-02T09:44:53;59.57;;;32.30;;
6223;SDS011;3145;42.726;23.342;2024-03-02T09:47:20;58.57;;;30.77;;
6223;SDS011;3145;42.726;23.342;2024-03-02T09:49:47;59.73;;;30.43;;
6223;SDS011;3145;42.726;23.342;2024-03-02T09:52:13;51.37;;;27.27;;
6223;SDS011;3145;42.726;23.342;2024-03-02T09:54:41;57.13;;;28.10;;
6223;SDS011;3145;42.726;23.342;2024-03-02T09:57:08;53.70;;;27.70;;
6223;SDS011;3145;42.726;23.342;2024-03-02T09:59:35;53.87;;;28.50;;
6223;SDS011;3145;42.726;23.342;2024-03-02T10:02:05;47.10;;;27.40;;
6223;SDS011;3145;42.726;23.342;2024-03-02T10:04:32;65.33;;;37.90;;
6223;SDS011;3145;42.726;23.342;2024-03-02T10:07:13;52.73;;;28.80;;
6223;SDS011;3145;42.726;23.342;2024-03-02T10:09:39;54.87;;;29.90;;
6223;SDS011;3145;42.726;23.342;2024-03-02T10:12:07;46.87;;;28.10;;
6223;SDS011;3145;42.726;23.342;2024-03-02T10:14:34;56.67;;;29.60;;
6223;SDS011;3145;42.726;23.342;2024-03-02T10:17:02;53.47;;;29.30;;
6223;SDS011;3145;42.726;23.342;2024-03-02T10:19:31;53.93;;;31.10;;
6223;SDS011;3145;42.726;23.342;2024-03-02T10:22:00;56.17;;;30.33;;
6223;SDS011;3145;42.726;23.342;2024-03-02T10:24:28;57.23;;;32.47;;
6223;SDS011;3145;42.726;23.342;2024-03-02T10:27:02;45.23;;;26.43;;
6223;SDS011;3145;42.726;23.342;2024-03-02T10:29:36;49.70;;;28.67;;
6223;SDS011;3145;42.726;23.342;2024-03-02T10:32:04;51.20;;;28.00;;
6223;SDS011;3145;42.726;23.342;2024-03-02T10:34:33;52.23;;;28.30;;
6223;SDS011;3145;42.726;23.342;2024-03-02T10:37:00;64.13;;;37.17;;
6223;SDS011;3145;42.726;23.342;2024-03-02T10:39:27;49.27;;;28.27;;
6223;SDS011;3145;42.726;23.342;2024-03-02T10:41:56;46.43;;;28.80;;
6223;SDS011;3145;42.726;23.342;2024-03-02T10:44:25;43.97;;;27.57;;
6223;SDS011;3145;42.726;23.342;2024-03-02T10:46:52;45.07;;;25.47;;
6223;SDS011;3145;42.726;23.342;2024-03-02T10:49:22;48.07;;;27.03;;
6223;SDS011;3145;42.726;23.342;2024-03-02T10:51:51;47.60;;;26.43;;
6223;SDS011;3145;42.726;23.342;2024-03-02T10:54:18;45.03;;;27.47;;
6223;SDS011;3145;42.726;23.342;2024-03-02T10:56:51;43.83;;;25.23;;
6223;SDS011;3145;42.726;23.342;2024-03-02T10:59:21;44.47;;;25.07;;
6223;SDS011;3145;42.726;23.342;2024-03-02T11:01:53;35.87;;;22.33;;
6223;SDS011;3145;42.726;23.342;2024-03-02T11:04:22;49.03;;;25.30;;
6223;SDS011;3145;42.726;23.342;2024-03-02T11:06:54;44.80;;;25.10;;
6223;SDS011;3145;42.726;23.342;2024-03-02T11:09:25;48.27;;;28.87;;
6223;SDS011;3145;42.726;23.342;2024-03-02T11:11:56;56.97;;;33.60;;
6223;SDS011;3145;42.726;23.342;2024-03-02T11:14:30;48.07;;;29.20;;
6223;SDS011;3145;42.726;23.342;2024-03-02T11:16:58;38.07;;;25.50;;
6223;SDS011;3145;42.726;23.342;2024-03-02T11:19:28;42.07;;;23.30;;
6223;SDS011;3145;42.726;23.342;2024-03-02T11:21:58;40.33;;;23.73;;
6223;SDS011;3145;42.726;23.342;2024-03-02T11:24:29;47.60;;;26.27;;
6223;SDS011;3145;42.726;23.342;2024-03-02T11:26:59;61.13;;;31.60;;
6223;SDS011;3145;42.726;23.342;2024-03-02T11:32:15;42.67;;;28.23;;
6223;SDS011;3145;42.726;23.342;2024-03-02T11:34:45;39.37;;;23.50;;
6223;SDS011;3145;42.726;23.342;2024-03-02T11:37:14;38.87;;;24.17;;
6223;SDS011;3145;42.726;23.342;2024-03-02T11:39:42;38.80;;;24.23;;
6223;SDS011;3145;42.726;23.342;2024-03-02T11:42:10;37.00;;;23.13;;
6223;SDS011;3145;42.726;23.342;2024-03-02T11:44:39;37.10;;;22.77;;
6223;SDS011;3145;42.726;23.342;2024-03-02T11:47:07;47.60;;;29.17;;
6223;SDS011;3145;42.726;23.342;2024-03-02T11:49:37;36.63;;;21.90;;
6223;SDS011;3145;42.726;23.342;2024-03-02T11:52:05;34.20;;;21.73;;
6223;SDS011;3145;42.726;23.342;2024-03-02T11:54:34;58.63;;;30.83;;
6223;SDS011;3145;42.726;23.342;2024-03-02T11:57:01;35.80;;;21.77;;
6223;SDS011;3145;42.726;23.342;2024-03-02T11:59:28;59.20;;;33.43;;
6223;SDS011;3145;42.726;23.342;2024-03-02T12:01:55;62.23;;;33.03;;
6223;SDS011;3145;42.726;23.342;2024-03-02T12:04:22;59.17;;;32.33;;
6223;SDS011;3145;42.726;23.342;2024-03-02T12:06:53;35.27;;;22.27;;
6223;SDS011;3145;42.726;23.342;2024-03-02T12:09:21;45.67;;;25.43;;
6223;SDS011;3145;42.726;23.342;2024-03-02T12:11:49;29.10;;;19.23;;
6223;SDS011;3145;42.726;23.342;2024-03-02T12:14:28;29.80;;;20.13;;
6223;SDS011;3145;42.726;23.342;2024-03-02T12:16:55;31.87;;;20.17;;
6223;SDS011;3145;42.726;23.342;2024-03-02T12:19:23;30.13;;;21.47;;
6223;SDS011;3145;42.726;23.342;2024-03-02T12:21:50;41.03;;;25.30;;
6223;SDS011;3145;42.726;23.342;2024-03-02T12:24:17;35.60;;;22.57;;
6223;SDS011;3145;42.726;23.342;2024-03-02T12:26:44;49.97;;;31.87;;
6223;SDS011;3145;42.726;23.342;2024-03-02T12:29:14;33.43;;;21.30;;
6223;SDS011;3145;42.726;23.342;2024-03-02T12:31:41;33.00;;;22.10;;
6223;SDS011;3145;42.726;23.342;2024-03-02T12:34:10;35.10;;;23.93;;
6223;SDS011;3145;42.726;23.342;2024-03-02T12:36:38;30.03;;;20.40;;
6223;SDS011;3145;42.726;23.342;2024-03-02T12:39:06;32.23;;;20.33;;
6223;SDS011;3145;42.726;23.342;2024-03-02T12:41:35;27.40;;;19.33;;
6223;SDS011;3145;42.726;23.342;2024-03-02T12:44:02;30.80;;;20.00;;
6223;SDS011;3145;42.726;23.342;2024-03-02T12:46:30;29.33;;;19.73;;
6223;SDS011;3145;42.726;23.342;2024-03-02T12:48:57;34.60;;;23.53;;
6223;SDS011;3145;42.726;23.342;2024-03-02T12:51:24;29.63;;;20.83;;
6223;SDS011;3145;42.726;23.342;2024-03-02T12:53:54;33.43;;;21.37;;
6223;SDS011;3145;42.726;23.342;2024-03-02T12:56:21;30.57;;;21.23;;
6223;SDS011;3145;42.726;23.342;2024-03-02T12:58:52;27.50;;;20.63;;
6223;SDS011;3145;42.726;23.342;2024-03-02T13:01:20;29.73;;;20.50;;
6223;SDS011;3145;42.726;23.342;2024-03-02T13:03:49;30.17;;;19.77;;
6223;SDS011;3145;42.726;23.342;2024-03-02T13:06:16;31.40;;;20.40;;
6223;SDS011;3145;42.726;23.342;2024-03-02T13:08:44;31.53;;;21.67;;
6223;SDS011;3145;42.726;23.342;2024-03-02T13:11:11;26.63;;;20.00;;
6223;SDS011;3145;42.726;23.342;2024-03-02T13:13:38;34.27;;;23.83;;
6223;SDS011;3145;42.726;23.342;2024-03-02T13:16:07;40.83;;;31.07;;
6223;SDS011;3145;42.726;23.342;2024-03-02T13:18:35;39.03;;;26.00;;
6223;SDS011;3145;42.726;23.342;2024-03-02T13:21:03;31.63;;;22.10;;
6223;SDS011;3145;42.726;23.342;2024-03-02T13:23:30;38.60;;;27.47;;
6223;SDS011;3145;42.726;23.342;2024-03-02T13:25:57;27.27;;;18.53;;
6223;SDS011;3145;42.726;23.342;2024-03-02T13:28:24;30.73;;;19.60;;
6223;SDS011;3145;42.726;23.342;2024-03-02T13:30:51;24.47;;;17.63;;
6223;SDS011;3145;42.726;23.342;2024-03-02T13:33:18;24.33;;;16.10;;
6223;SDS011;3145;42.726;23.342;2024-03-02T13:35:47;24.97;;;17.83;;
6223;SDS011;3145;42.726;23.342;2024-03-02T13:38:18;17.27;;;15.07;;
6223;SDS011;3145;42.726;23.342;2024-03-02T13:40:46;29.00;;;20.33;;
6223;SDS011;3145;42.726;23.342;2024-03-02T13:43:16;26.30;;;18.63;;
6223;SDS011;3145;42.726;23.342;2024-03-02T13:45:43;26.03;;;18.00;;
6223;SDS011;3145;42.726;23.342;2024-03-02T13:48:10;28.53;;;20.73;;
6223;SDS011;3145;42.726;23.342;2024-03-02T13:50:37;27.73;;;18.43;;
6223;SDS011;3145;42.726;23.342;2024-03-02T13:53:03;24.53;;;17.60;;
6223;SDS011;3145;42.726;23.342;2024-03-02T13:55:33;28.33;;;19.70;;
6223;SDS011;3145;42.726;23.342;2024-03-02T13:58:00;31.17;;;20.30;;
6223;SDS011;3145;42.726;23.342;2024-03-02T14:00:26;28.57;;;19.83;;
6223;SDS011;3145;42.726;23.342;2024-03-02T14:02:54;30.03;;;20.40;;
6223;SDS011;3145;42.726;23.342;2024-03-02T14:05:21;28.20;;;19.20;;
6223;SDS011;3145;42.726;23.342;2024-03-02T14:07:47;32.07;;;21.00;;
6223;SDS011;3145;42.726;23.342;2024-03-02T14:10:14;31.23;;;21.27;;
6223;SDS011;3145;42.726;23.342;2024-03-02T14:12:43;33.00;;;20.63;;
6223;SDS011;3145;42.726;23.342;2024-03-02T14:15:09;28.30;;;19.57;;
6223;SDS011;3145;42.726;23.342;2024-03-02T14:17:36;36.47;;;21.97;;
6223;SDS011;3145;42.726;23.342;2024-03-02T14:20:03;32.83;;;22.13;;
6223;SDS011;3145;42.726;23.342;2024-03-02T14:22:32;35.30;;;23.50;;
6223;SDS011;3145;42.726;23.342;2024-03-02T14:24:59;37.83;;;23.80;;
6223;SDS011;3145;42.726;23.342;2024-03-02T14:27:25;41.07;;;25.77;;
6223;SDS011;3145;42.726;23.342;2024-03-02T14:29:53;39.47;;;25.13;;
6223;SDS011;3145;42.726;23.342;2024-03-02T14:32:20;40.80;;;27.17;;
6223;SDS011;3145;42.726;23.342;2024-03-02T14:34:47;41.43;;;26.77;;
6223;SDS011;3145;42.726;23.342;2024-03-02T14:37:13;48.73;;;29.10;;
6223;SDS011;3145;42.726;23.342;2024-03-02T14:39:41;45.30;;;28.87;;
6223;SDS011;3145;42.726;23.342;2024-03-02T14:42:07;42.57;;;28.47;;